sensor_id;sensor_type;location;lat;lon;timestamp;P1;durP1;ratioP1;P2;durP2;ratioP2
43449;SDS011;29041;42.266;23.110;2022-11-18T00:00:33;23.95;;;11.05;;
43449;SDS011;29041;42.266;23.110;2022-11-18T00:03:20;24.30;;;10.65;;
43449;SDS011;29041;42.266;23.110;2022-11-18T00:06:09;24.20;;;11.02;;
43449;SDS011;29041;42.266;23.110;2022-11-18T00:09:00;21.02;;;10.80;;
43449;SDS011;29041;42.266;23.110;2022-11-18T00:11:47;22.33;;;11.38;;
43449;SDS011;29041;42.266;23.110;2022-11-18T00:14:51;26.00;;;11.48;;
43449;SDS011;29041;42.266;23.110;2022-11-18T00:17:38;25.42;;;11.18;;
43449;SDS011;29041;42.266;23.110;2022-11-18T00:20:26;27.95;;;12.00;;
43449;SDS011;29041;42.266;23.110;2022-11-18T00:23:13;20.58;;;10.43;;
43449;SDS011;29041;42.266;23.110;2022-11-18T00:26:02;16.38;;;8.38;;
43449;SDS011;29041;42.266;23.110;2022-11-18T00:28:50;16.08;;;8.32;;
43449;SDS011;29041;42.266;23.110;2022-11-18T00:31:37;17.42;;;8.70;;
43449;SDS011;29041;42.266;23.110;2022-11-18T00:34:25;10.40;;;5.97;;
43449;SDS011;29041;42.266;23.110;2022-11-18T00:37:12;17.85;;;6.65;;
43449;SDS011;29041;42.266;23.110;2022-11-18T00:39:59;12.30;;;7.57;;
43449;SDS011;29041;42.266;23.110;2022-11-18T00:42:48;13.25;;;7.00;;
43449;SDS011;29041;42.266;23.110;2022-11-18T00:45:37;16.60;;;7.22;;
43449;SDS011;29041;42.266;23.110;2022-11-18T00:48:24;16.67;;;7.28;;
43449;SDS011;29041;42.266;23.110;2022-11-18T00:51:13;15.93;;;7.60;;
43449;SDS011;29041;42.266;23.110;2022-11-18T00:54:01;13.60;;;7.63;;
43449;SDS011;29041;42.266;23.110;2022-11-18T00:56:48;19.25;;;8.70;;
43449;SDS011;29041;42.266;23.110;2022-11-18T00:59:37;17.08;;;8.25;;
43449;SDS011;29041;42.266;23.110;2022-11-18T01:02:24;16.00;;;8.73;;
43449;SDS011;29041;42.266;23.110;2022-11-18T01:05:11;16.48;;;8.10;;
43449;SDS011;29041;42.266;23.110;2022-11-18T01:07:59;16.02;;;8.45;;
43449;SDS011;29041;42.266;23.110;2022-11-18T01:10:46;13.27;;;7.57;;
43449;SDS011;29041;42.266;23.110;2022-11-18T01:13:34;15.25;;;8.30;;
43449;SDS011;29041;42.266;23.110;2022-11-18T01:16:22;16.67;;;8.18;;
43449;SDS011;29041;42.266;23.110;2022-11-18T01:19:10;16.98;;;7.75;;
43449;SDS011;29041;42.266;23.110;2022-11-18T01:21:58;17.15;;;8.07;;
43449;SDS011;29041;42.266;23.110;2022-11-18T01:24:47;16.58;;;7.47;;
43449;SDS011;29041;42.266;23.110;2022-11-18T01:27:34;21.73;;;8.45;;
43449;SDS011;29041;42.266;23.110;2022-11-18T01:30:21;19.08;;;9.20;;
43449;SDS011;29041;42.266;23.110;2022-11-18T01:33:10;16.90;;;7.38;;
43449;SDS011;29041;42.266;23.110;2022-11-18T01:35:58;12.30;;;6.68;;
43449;SDS011;29041;42.266;23.110;2022-11-18T01:38:45;13.55;;;6.07;;
43449;SDS011;29041;42.266;23.110;2022-11-18T01:41:33;15.07;;;5.97;;
43449;SDS011;29041;42.266;23.110;2022-11-18T01:47:44;17.88;;;6.18;;
43449;SDS011;29041;42.266;23.110;2022-11-18T01:50:37;8.32;;;4.45;;
43449;SDS011;29041;42.266;23.110;2022-11-18T01:53:30;12.55;;;6.22;;
43449;SDS011;29041;42.266;23.110;2022-11-18T01:56:20;9.32;;;4.50;;
43449;SDS011;29041;42.266;23.110;2022-11-18T01:59:12;13.00;;;5.90;;
43449;SDS011;29041;42.266;23.110;2022-11-18T02:02:04;9.20;;;5.38;;
43449;SDS011;29041;42.266;23.110;2022-11-18T02:04:56;12.30;;;5.03;;
43449;SDS011;29041;42.266;23.110;2022-11-18T02:07:45;10.20;;;5.13;;
43449;SDS011;29041;42.266;23.110;2022-11-18T02:10:33;16.55;;;6.72;;
43449;SDS011;29041;42.266;23.110;2022-11-18T02:13:20;11.30;;;5.45;;
43449;SDS011;29041;42.266;23.110;2022-11-18T02:16:10;10.82;;;6.50;;
43449;SDS011;29041;42.266;23.110;2022-11-18T02:19:03;13.10;;;6.05;;
43449;SDS011;29041;42.266;23.110;2022-11-18T02:22:03;9.23;;;5.75;;
43449;SDS011;29041;42.266;23.110;2022-11-18T02:25:05;9.30;;;4.20;;
43449;SDS011;29041;42.266;23.110;2022-11-18T02:28:12;13.48;;;4.30;;
43449;SDS011;29041;42.266;23.110;2022-11-18T02:31:18;10.52;;;4.68;;
43449;SDS011;29041;42.266;23.110;2022-11-18T02:34:12;12.27;;;5.03;;
43449;SDS011;29041;42.266;23.110;2022-11-18T02:37:04;11.38;;;4.57;;
43449;SDS011;29041;42.266;23.110;2022-11-18T02:39:58;14.55;;;5.18;;
43449;SDS011;29041;42.266;23.110;2022-11-18T02:42:51;11.60;;;4.13;;
43449;SDS011;29041;42.266;23.110;2022-11-18T02:48:36;8.70;;;4.50;;
43449;SDS011;29041;42.266;23.110;2022-11-18T02:51:28;9.90;;;4.57;;
43449;SDS011;29041;42.266;23.110;2022-11-18T02:54:19;14.95;;;4.70;;
43449;SDS011;29041;42.266;23.110;2022-11-18T02:57:09;9.32;;;4.18;;
43449;SDS011;29041;42.266;23.110;2022-11-18T02:59:57;11.90;;;4.53;;
43449;SDS011;29041;42.266;23.110;2022-11-18T03:02:45;11.60;;;5.03;;
43449;SDS011;29041;42.266;23.110;2022-11-18T03:05:38;8.70;;;5.25;;
43449;SDS011;29041;42.266;23.110;2022-11-18T03:08:30;14.57;;;6.15;;
43449;SDS011;29041;42.266;23.110;2022-11-18T03:11:22;13.02;;;5.43;;
43449;SDS011;29041;42.266;23.110;2022-11-18T03:14:15;11.18;;;5.45;;
43449;SDS011;29041;42.266;23.110;2022-11-18T03:17:11;9.63;;;4.38;;
43449;SDS011;29041;42.266;23.110;2022-11-18T03:20:08;11.85;;;5.57;;
43449;SDS011;29041;42.266;23.110;2022-11-18T03:23:05;8.75;;;4.30;;
43449;SDS011;29041;42.266;23.110;2022-11-18T03:25:57;11.02;;;5.22;;
43449;SDS011;29041;42.266;23.110;2022-11-18T03:28:48;9.15;;;4.72;;
43449;SDS011;29041;42.266;23.110;2022-11-18T03:31:42;11.40;;;4.65;;
43449;SDS011;29041;42.266;23.110;2022-11-18T03:34:33;7.57;;;4.70;;
43449;SDS011;29041;42.266;23.110;2022-11-18T03:37:24;14.75;;;5.55;;
43449;SDS011;29041;42.266;23.110;2022-11-18T03:40:16;15.00;;;4.72;;
43449;SDS011;29041;42.266;23.110;2022-11-18T03:45:59;9.75;;;3.65;;
43449;SDS011;29041;42.266;23.110;2022-11-18T03:48:52;8.73;;;4.60;;
43449;SDS011;29041;42.266;23.110;2022-11-18T03:51:42;10.13;;;4.75;;
43449;SDS011;29041;42.266;23.110;2022-11-18T03:54:33;8.07;;;4.10;;
43449;SDS011;29041;42.266;23.110;2022-11-18T03:57:24;7.43;;;3.53;;
43449;SDS011;29041;42.266;23.110;2022-11-18T04:00:19;10.98;;;4.97;;
43449;SDS011;29041;42.266;23.110;2022-11-18T04:03:08;7.47;;;3.78;;
43449;SDS011;29041;42.266;23.110;2022-11-18T04:05:57;12.85;;;5.35;;
43449;SDS011;29041;42.266;23.110;2022-11-18T04:08:52;11.45;;;3.88;;
43449;SDS011;29041;42.266;23.110;2022-11-18T04:11:45;8.48;;;3.67;;
43449;SDS011;29041;42.266;23.110;2022-11-18T04:14:52;10.40;;;4.38;;
43449;SDS011;29041;42.266;23.110;2022-11-18T04:17:40;12.73;;;5.68;;
43449;SDS011;29041;42.266;23.110;2022-11-18T04:20:35;11.60;;;4.82;;
43449;SDS011;29041;42.266;23.110;2022-11-18T04:23:26;13.18;;;5.75;;
43449;SDS011;29041;42.266;23.110;2022-11-18T04:26:13;13.63;;;7.70;;
43449;SDS011;29041;42.266;23.110;2022-11-18T04:29:02;28.95;;;14.30;;
43449;SDS011;29041;42.266;23.110;2022-11-18T04:31:51;21.80;;;9.00;;
43449;SDS011;29041;42.266;23.110;2022-11-18T04:34:38;15.85;;;7.47;;
43449;SDS011;29041;42.266;23.110;2022-11-18T04:37:25;16.98;;;6.95;;
43449;SDS011;29041;42.266;23.110;2022-11-18T04:40:12;15.02;;;5.55;;
43449;SDS011;29041;42.266;23.110;2022-11-18T04:42:59;16.58;;;6.95;;
43449;SDS011;29041;42.266;23.110;2022-11-18T04:45:46;13.15;;;5.38;;
43449;SDS011;29041;42.266;23.110;2022-11-18T04:48:35;12.18;;;5.90;;
43449;SDS011;29041;42.266;23.110;2022-11-18T04:51:22;15.45;;;6.82;;
43449;SDS011;29041;42.266;23.110;2022-11-18T04:54:09;17.42;;;8.65;;
43449;SDS011;29041;42.266;23.110;2022-11-18T04:56:57;54.88;;;24.05;;
43449;SDS011;29041;42.266;23.110;2022-11-18T04:59:44;13.10;;;6.90;;
43449;SDS011;29041;42.266;23.110;2022-11-18T05:02:31;29.58;;;15.98;;
43449;SDS011;29041;42.266;23.110;2022-11-18T05:05:20;10.70;;;4.80;;
43449;SDS011;29041;42.266;23.110;2022-11-18T05:08:07;13.35;;;5.82;;
43449;SDS011;29041;42.266;23.110;2022-11-18T05:10:54;9.40;;;4.95;;
43449;SDS011;29041;42.266;23.110;2022-11-18T05:14:01;16.08;;;6.50;;
43449;SDS011;29041;42.266;23.110;2022-11-18T05:16:47;17.27;;;8.48;;
43449;SDS011;29041;42.266;23.110;2022-11-18T05:19:36;13.23;;;5.15;;
43449;SDS011;29041;42.266;23.110;2022-11-18T05:22:26;15.95;;;6.78;;
43449;SDS011;29041;42.266;23.110;2022-11-18T05:25:13;11.45;;;6.70;;
43449;SDS011;29041;42.266;23.110;2022-11-18T05:28:00;23.40;;;10.10;;
43449;SDS011;29041;42.266;23.110;2022-11-18T05:30:47;8.73;;;4.85;;
43449;SDS011;29041;42.266;23.110;2022-11-18T05:33:34;10.93;;;5.95;;
43449;SDS011;29041;42.266;23.110;2022-11-18T05:36:22;14.57;;;5.85;;
43449;SDS011;29041;42.266;23.110;2022-11-18T05:39:11;10.57;;;6.50;;
43449;SDS011;29041;42.266;23.110;2022-11-18T05:41:58;12.65;;;7.25;;
43449;SDS011;29041;42.266;23.110;2022-11-18T05:45:15;13.13;;;6.40;;
43449;SDS011;29041;42.266;23.110;2022-11-18T05:48:04;14.98;;;9.25;;
43449;SDS011;29041;42.266;23.110;2022-11-18T05:50:52;19.75;;;9.60;;
43449;SDS011;29041;42.266;23.110;2022-11-18T05:53:40;13.10;;;6.15;;
43449;SDS011;29041;42.266;23.110;2022-11-18T05:56:30;8.73;;;5.00;;
43449;SDS011;29041;42.266;23.110;2022-11-18T05:59:22;10.57;;;5.50;;
43449;SDS011;29041;42.266;23.110;2022-11-18T06:02:10;11.18;;;5.63;;
43449;SDS011;29041;42.266;23.110;2022-11-18T06:05:00;14.30;;;6.70;;
43449;SDS011;29041;42.266;23.110;2022-11-18T06:07:50;13.38;;;6.18;;
43449;SDS011;29041;42.266;23.110;2022-11-18T06:10:41;14.98;;;5.07;;
43449;SDS011;29041;42.266;23.110;2022-11-18T06:13:33;13.80;;;6.22;;
43449;SDS011;29041;42.266;23.110;2022-11-18T06:16:25;11.52;;;5.32;;
43449;SDS011;29041;42.266;23.110;2022-11-18T06:19:19;11.88;;;6.57;;
43449;SDS011;29041;42.266;23.110;2022-11-18T06:22:08;14.40;;;6.10;;
43449;SDS011;29041;42.266;23.110;2022-11-18T06:24:55;13.52;;;7.30;;
43449;SDS011;29041;42.266;23.110;2022-11-18T06:27:43;15.65;;;6.97;;
43449;SDS011;29041;42.266;23.110;2022-11-18T06:30:33;12.45;;;5.90;;
43449;SDS011;29041;42.266;23.110;2022-11-18T06:33:21;22.55;;;10.23;;
43449;SDS011;29041;42.266;23.110;2022-11-18T06:36:09;13.07;;;6.53;;
43449;SDS011;29041;42.266;23.110;2022-11-18T06:39:00;16.42;;;7.90;;
43449;SDS011;29041;42.266;23.110;2022-11-18T06:41:51;19.88;;;7.45;;
43449;SDS011;29041;42.266;23.110;2022-11-18T06:44:40;18.85;;;11.48;;
43449;SDS011;29041;42.266;23.110;2022-11-18T06:47:27;18.83;;;6.53;;
43449;SDS011;29041;42.266;23.110;2022-11-18T06:50:15;14.88;;;6.10;;
43449;SDS011;29041;42.266;23.110;2022-11-18T06:53:02;16.65;;;7.65;;
43449;SDS011;29041;42.266;23.110;2022-11-18T06:55:49;8.13;;;5.35;;
43449;SDS011;29041;42.266;23.110;2022-11-18T06:58:36;16.10;;;5.95;;
43449;SDS011;29041;42.266;23.110;2022-11-18T07:01:24;10.52;;;6.10;;
43449;SDS011;29041;42.266;23.110;2022-11-18T07:04:14;10.20;;;5.07;;
43449;SDS011;29041;42.266;23.110;2022-11-18T07:07:01;12.23;;;6.30;;
43449;SDS011;29041;42.266;23.110;2022-11-18T07:09:48;12.25;;;7.07;;
43449;SDS011;29041;42.266;23.110;2022-11-18T07:12:36;9.93;;;6.07;;
43449;SDS011;29041;42.266;23.110;2022-11-18T07:15:23;8.68;;;5.50;;
43449;SDS011;29041;42.266;23.110;2022-11-18T07:18:10;13.50;;;5.28;;
43449;SDS011;29041;42.266;23.110;2022-11-18T07:21:01;11.23;;;5.85;;
43449;SDS011;29041;42.266;23.110;2022-11-18T07:23:49;13.35;;;6.32;;
43449;SDS011;29041;42.266;23.110;2022-11-18T07:26:36;14.00;;;7.85;;
43449;SDS011;29041;42.266;23.110;2022-11-18T07:29:23;16.63;;;9.32;;
43449;SDS011;29041;42.266;23.110;2022-11-18T07:32:10;16.52;;;8.63;;
43449;SDS011;29041;42.266;23.110;2022-11-18T07:34:58;15.60;;;8.07;;
43449;SDS011;29041;42.266;23.110;2022-11-18T07:37:50;13.00;;;6.97;;
43449;SDS011;29041;42.266;23.110;2022-11-18T07:40:37;15.48;;;6.00;;
43449;SDS011;29041;42.266;23.110;2022-11-18T07:43:24;14.10;;;6.65;;
43449;SDS011;29041;42.266;23.110;2022-11-18T07:46:12;11.40;;;6.15;;
43449;SDS011;29041;42.266;23.110;2022-11-18T07:49:01;21.02;;;10.50;;
43449;SDS011;29041;42.266;23.110;2022-11-18T07:51:49;16.25;;;6.28;;
43449;SDS011;29041;42.266;23.110;2022-11-18T07:54:38;13.80;;;7.60;;
43449;SDS011;29041;42.266;23.110;2022-11-18T07:57:25;38.97;;;19.70;;
43449;SDS011;29041;42.266;23.110;2022-11-18T08:00:13;31.80;;;18.73;;
43449;SDS011;29041;42.266;23.110;2022-11-18T08:03:00;18.45;;;10.35;;
43449;SDS011;29041;42.266;23.110;2022-11-18T08:05:48;29.77;;;15.40;;
43449;SDS011;29041;42.266;23.110;2022-11-18T08:08:36;16.40;;;8.35;;
43449;SDS011;29041;42.266;23.110;2022-11-18T08:11:25;16.83;;;8.90;;
43449;SDS011;29041;42.266;23.110;2022-11-18T08:14:12;12.63;;;6.10;;
43449;SDS011;29041;42.266;23.110;2022-11-18T08:16:59;12.93;;;6.65;;
43449;SDS011;29041;42.266;23.110;2022-11-18T08:19:46;14.07;;;6.57;;
43449;SDS011;29041;42.266;23.110;2022-11-18T08:22:34;19.17;;;7.97;;
43449;SDS011;29041;42.266;23.110;2022-11-18T08:25:21;11.00;;;7.00;;
43449;SDS011;29041;42.266;23.110;2022-11-18T08:31:14;21.90;;;11.70;;
43449;SDS011;29041;42.266;23.110;2022-11-18T08:34:04;13.18;;;6.38;;
43449;SDS011;29041;42.266;23.110;2022-11-18T08:36:52;21.48;;;9.95;;
43449;SDS011;29041;42.266;23.110;2022-11-18T08:39:39;21.45;;;10.93;;
43449;SDS011;29041;42.266;23.110;2022-11-18T08:42:26;19.45;;;9.57;;
43449;SDS011;29041;42.266;23.110;2022-11-18T08:45:15;15.77;;;7.43;;
43449;SDS011;29041;42.266;23.110;2022-11-18T08:48:02;15.52;;;7.03;;
43449;SDS011;29041;42.266;23.110;2022-11-18T08:50:50;10.80;;;6.22;;
43449;SDS011;29041;42.266;23.110;2022-11-18T08:53:38;17.17;;;7.90;;
43449;SDS011;29041;42.266;23.110;2022-11-18T08:56:25;31.40;;;12.10;;
43449;SDS011;29041;42.266;23.110;2022-11-18T08:59:12;43.50;;;16.25;;
43449;SDS011;29041;42.266;23.110;2022-11-18T09:02:01;21.48;;;10.00;;
43449;SDS011;29041;42.266;23.110;2022-11-18T09:04:48;25.42;;;13.27;;
43449;SDS011;29041;42.266;23.110;2022-11-18T09:07:37;19.38;;;9.88;;
43449;SDS011;29041;42.266;23.110;2022-11-18T09:10:24;14.88;;;9.05;;
43449;SDS011;29041;42.266;23.110;2022-11-18T09:13:11;29.05;;;14.05;;
43449;SDS011;29041;42.266;23.110;2022-11-18T09:15:58;23.58;;;12.45;;
43449;SDS011;29041;42.266;23.110;2022-11-18T09:18:47;20.38;;;12.15;;
43449;SDS011;29041;42.266;23.110;2022-11-18T09:21:35;16.73;;;9.43;;
43449;SDS011;29041;42.266;23.110;2022-11-18T09:24:22;23.45;;;11.63;;
43449;SDS011;29041;42.266;23.110;2022-11-18T09:27:09;11.00;;;5.15;;
43449;SDS011;29041;42.266;23.110;2022-11-18T09:29:56;16.35;;;9.32;;
43449;SDS011;29041;42.266;23.110;2022-11-18T09:32:43;6.70;;;3.92;;
43449;SDS011;29041;42.266;23.110;2022-11-18T09:35:32;9.55;;;5.43;;
43449;SDS011;29041;42.266;23.110;2022-11-18T09:38:19;7.90;;;5.15;;
43449;SDS011;29041;42.266;23.110;2022-11-18T09:41:09;6.88;;;3.83;;
43449;SDS011;29041;42.266;23.110;2022-11-18T09:44:11;8.02;;;5.75;;
43449;SDS011;29041;42.266;23.110;2022-11-18T09:47:10;7.80;;;5.63;;
43449;SDS011;29041;42.266;23.110;2022-11-18T09:50:09;6.90;;;3.70;;
43449;SDS011;29041;42.266;23.110;2022-11-18T09:53:03;8.32;;;4.25;;
43449;SDS011;29041;42.266;23.110;2022-11-18T09:58:49;7.47;;;4.97;;
43449;SDS011;29041;42.266;23.110;2022-11-18T10:01:36;12.20;;;5.90;;
43449;SDS011;29041;42.266;23.110;2022-11-18T10:04:26;12.02;;;5.72;;
43449;SDS011;29041;42.266;23.110;2022-11-18T10:07:14;7.05;;;4.32;;
43449;SDS011;29041;42.266;23.110;2022-11-18T10:10:06;10.13;;;5.38;;
43449;SDS011;29041;42.266;23.110;2022-11-18T10:13:01;6.03;;;4.22;;
43449;SDS011;29041;42.266;23.110;2022-11-18T10:15:56;7.32;;;4.20;;
43449;SDS011;29041;42.266;23.110;2022-11-18T10:18:51;13.23;;;5.72;;
43449;SDS011;29041;42.266;23.110;2022-11-18T10:21:46;6.85;;;3.78;;
43449;SDS011;29041;42.266;23.110;2022-11-18T10:24:43;5.95;;;3.90;;
43449;SDS011;29041;42.266;23.110;2022-11-18T10:27:34;5.88;;;3.80;;
43449;SDS011;29041;42.266;23.110;2022-11-18T10:30:24;5.82;;;4.15;;
43449;SDS011;29041;42.266;23.110;2022-11-18T10:36:18;8.18;;;4.30;;
43449;SDS011;29041;42.266;23.110;2022-11-18T10:39:13;6.45;;;4.00;;
43449;SDS011;29041;42.266;23.110;2022-11-18T10:42:02;10.18;;;5.20;;
43449;SDS011;29041;42.266;23.110;2022-11-18T10:44:52;9.55;;;5.32;;
43449;SDS011;29041;42.266;23.110;2022-11-18T10:47:39;8.35;;;5.53;;
43449;SDS011;29041;42.266;23.110;2022-11-18T10:50:28;8.80;;;5.75;;
43449;SDS011;29041;42.266;23.110;2022-11-18T10:53:27;11.25;;;5.10;;
43449;SDS011;29041;42.266;23.110;2022-11-18T10:56:16;6.82;;;4.57;;
43449;SDS011;29041;42.266;23.110;2022-11-18T10:59:03;9.45;;;5.88;;
43449;SDS011;29041;42.266;23.110;2022-11-18T11:01:59;9.63;;;5.72;;
43449;SDS011;29041;42.266;23.110;2022-11-18T11:04:48;8.55;;;5.43;;
43449;SDS011;29041;42.266;23.110;2022-11-18T11:07:37;9.88;;;5.32;;
43449;SDS011;29041;42.266;23.110;2022-11-18T11:10:24;9.40;;;7.32;;
43449;SDS011;29041;42.266;23.110;2022-11-18T11:13:12;7.95;;;4.60;;
43449;SDS011;29041;42.266;23.110;2022-11-18T11:16:02;7.43;;;4.85;;
43449;SDS011;29041;42.266;23.110;2022-11-18T11:18:55;7.68;;;4.97;;
43449;SDS011;29041;42.266;23.110;2022-11-18T11:21:48;6.53;;;5.05;;
43449;SDS011;29041;42.266;23.110;2022-11-18T11:24:35;12.05;;;4.68;;
43449;SDS011;29041;42.266;23.110;2022-11-18T11:30:42;5.90;;;3.85;;
43449;SDS011;29041;42.266;23.110;2022-11-18T11:33:37;7.65;;;4.20;;
43449;SDS011;29041;42.266;23.110;2022-11-18T11:36:34;8.80;;;4.72;;
43449;SDS011;29041;42.266;23.110;2022-11-18T11:39:35;7.70;;;4.00;;
43449;SDS011;29041;42.266;23.110;2022-11-18T11:42:34;7.70;;;3.97;;
43449;SDS011;29041;42.266;23.110;2022-11-18T11:45:34;5.88;;;3.58;;
43449;SDS011;29041;42.266;23.110;2022-11-18T11:48:36;2.92;;;1.90;;
43449;SDS011;29041;42.266;23.110;2022-11-18T11:51:37;4.30;;;2.08;;
43449;SDS011;29041;42.266;23.110;2022-11-18T11:54:36;4.53;;;1.85;;
43449;SDS011;29041;42.266;23.110;2022-11-18T12:00:24;5.57;;;1.73;;
43449;SDS011;29041;42.266;23.110;2022-11-18T12:03:17;2.65;;;1.77;;
43449;SDS011;29041;42.266;23.110;2022-11-18T12:06:20;2.65;;;1.70;;
43449;SDS011;29041;42.266;23.110;2022-11-18T12:09:11;4.85;;;2.25;;
43449;SDS011;29041;42.266;23.110;2022-11-18T12:12:04;5.57;;;2.65;;
43449;SDS011;29041;42.266;23.110;2022-11-18T12:15:17;4.18;;;2.08;;
43449;SDS011;29041;42.266;23.110;2022-11-18T12:18:14;2.83;;;1.63;;
43449;SDS011;29041;42.266;23.110;2022-11-18T12:21:06;3.25;;;1.48;;
43449;SDS011;29041;42.266;23.110;2022-11-18T12:24:22;2.95;;;1.38;;
43449;SDS011;29041;42.266;23.110;2022-11-18T12:30:32;3.30;;;1.85;;
43449;SDS011;29041;42.266;23.110;2022-11-18T12:33:19;1.90;;;1.13;;
43449;SDS011;29041;42.266;23.110;2022-11-18T12:36:06;5.10;;;1.35;;
43449;SDS011;29041;42.266;23.110;2022-11-18T12:38:54;3.47;;;1.60;;
43449;SDS011;29041;42.266;23.110;2022-11-18T12:41:52;1.67;;;1.17;;
43449;SDS011;29041;42.266;23.110;2022-11-18T12:44:58;3.53;;;1.40;;
43449;SDS011;29041;42.266;23.110;2022-11-18T12:48:30;2.20;;;1.38;;
43449;SDS011;29041;42.266;23.110;2022-11-18T12:54:30;3.85;;;2.53;;
43449;SDS011;29041;42.266;23.110;2022-11-18T12:57:21;4.18;;;1.90;;
43449;SDS011;29041;42.266;23.110;2022-11-18T13:00:17;7.45;;;1.88;;
43449;SDS011;29041;42.266;23.110;2022-11-18T13:03:14;2.72;;;1.30;;
43449;SDS011;29041;42.266;23.110;2022-11-18T13:06:12;1.95;;;1.25;;
43449;SDS011;29041;42.266;23.110;2022-11-18T13:09:11;4.03;;;2.03;;
43449;SDS011;29041;42.266;23.110;2022-11-18T13:12:03;4.13;;;1.92;;
43449;SDS011;29041;42.266;23.110;2022-11-18T13:14:54;4.18;;;2.40;;
43449;SDS011;29041;42.266;23.110;2022-11-18T13:18:06;2.92;;;1.63;;
43449;SDS011;29041;42.266;23.110;2022-11-18T13:20:59;3.45;;;1.45;;
43449;SDS011;29041;42.266;23.110;2022-11-18T13:24:10;2.33;;;1.48;;
43449;SDS011;29041;42.266;23.110;2022-11-18T13:26:57;2.22;;;1.27;;
43449;SDS011;29041;42.266;23.110;2022-11-18T13:29:46;4.13;;;1.42;;
43449;SDS011;29041;42.266;23.110;2022-11-18T13:32:42;1.50;;;1.20;;
43449;SDS011;29041;42.266;23.110;2022-11-18T13:35:30;2.50;;;1.48;;
43449;SDS011;29041;42.266;23.110;2022-11-18T13:38:19;5.93;;;1.98;;
43449;SDS011;29041;42.266;23.110;2022-11-18T13:41:13;4.03;;;1.50;;
43449;SDS011;29041;42.266;23.110;2022-11-18T13:44:09;4.57;;;1.92;;
43449;SDS011;29041;42.266;23.110;2022-11-18T13:46:59;3.35;;;2.13;;
43449;SDS011;29041;42.266;23.110;2022-11-18T13:49:55;3.88;;;1.63;;
43449;SDS011;29041;42.266;23.110;2022-11-18T13:52:49;6.70;;;1.80;;
43449;SDS011;29041;42.266;23.110;2022-11-18T13:55:47;3.55;;;1.67;;
43449;SDS011;29041;42.266;23.110;2022-11-18T13:58:38;4.03;;;1.90;;
43449;SDS011;29041;42.266;23.110;2022-11-18T14:01:27;3.55;;;1.58;;
43449;SDS011;29041;42.266;23.110;2022-11-18T14:04:17;4.40;;;1.63;;
43449;SDS011;29041;42.266;23.110;2022-11-18T14:07:20;6.40;;;2.22;;
43449;SDS011;29041;42.266;23.110;2022-11-18T14:10:17;6.13;;;2.50;;
43449;SDS011;29041;42.266;23.110;2022-11-18T14:13:16;3.17;;;1.67;;
43449;SDS011;29041;42.266;23.110;2022-11-18T14:19:25;2.78;;;1.85;;
43449;SDS011;29041;42.266;23.110;2022-11-18T14:22:18;2.38;;;1.60;;
43449;SDS011;29041;42.266;23.110;2022-11-18T14:25:14;4.40;;;1.58;;
43449;SDS011;29041;42.266;23.110;2022-11-18T14:28:11;2.70;;;1.67;;
43449;SDS011;29041;42.266;23.110;2022-11-18T14:31:08;2.85;;;2.65;;
43449;SDS011;29041;42.266;23.110;2022-11-18T14:34:15;3.10;;;1.58;;
43449;SDS011;29041;42.266;23.110;2022-11-18T14:37:08;5.28;;;2.13;;
43449;SDS011;29041;42.266;23.110;2022-11-18T14:39:59;5.75;;;1.70;;
43449;SDS011;29041;42.266;23.110;2022-11-18T14:42:46;3.25;;;1.80;;
43449;SDS011;29041;42.266;23.110;2022-11-18T14:45:33;3.92;;;2.00;;
43449;SDS011;29041;42.266;23.110;2022-11-18T14:48:21;5.35;;;2.30;;
43449;SDS011;29041;42.266;23.110;2022-11-18T14:51:13;4.28;;;1.92;;
43449;SDS011;29041;42.266;23.110;2022-11-18T14:54:01;3.45;;;1.75;;
43449;SDS011;29041;42.266;23.110;2022-11-18T14:56:50;3.22;;;2.42;;
43449;SDS011;29041;42.266;23.110;2022-11-18T14:59:38;14.52;;;3.30;;
43449;SDS011;29041;42.266;23.110;2022-11-18T15:02:25;6.93;;;2.58;;
43449;SDS011;29041;42.266;23.110;2022-11-18T15:05:13;3.95;;;2.08;;
43449;SDS011;29041;42.266;23.110;2022-11-18T15:08:00;3.80;;;1.90;;
43449;SDS011;29041;42.266;23.110;2022-11-18T15:10:47;3.05;;;1.60;;
43449;SDS011;29041;42.266;23.110;2022-11-18T15:13:36;3.92;;;1.77;;
43449;SDS011;29041;42.266;23.110;2022-11-18T15:16:24;3.15;;;1.52;;
43449;SDS011;29041;42.266;23.110;2022-11-18T15:19:13;3.58;;;1.83;;
43449;SDS011;29041;42.266;23.110;2022-11-18T15:22:01;5.30;;;2.30;;
43449;SDS011;29041;42.266;23.110;2022-11-18T15:24:48;4.45;;;1.92;;
43449;SDS011;29041;42.266;23.110;2022-11-18T15:27:35;3.28;;;1.30;;
43449;SDS011;29041;42.266;23.110;2022-11-18T15:30:24;4.82;;;1.67;;
43449;SDS011;29041;42.266;23.110;2022-11-18T15:33:11;4.70;;;2.08;;
43449;SDS011;29041;42.266;23.110;2022-11-18T15:35:58;7.13;;;2.80;;
43449;SDS011;29041;42.266;23.110;2022-11-18T15:38:46;5.22;;;2.65;;
43449;SDS011;29041;42.266;23.110;2022-11-18T15:41:34;2.28;;;1.60;;
43449;SDS011;29041;42.266;23.110;2022-11-18T15:44:22;3.13;;;1.60;;
43449;SDS011;29041;42.266;23.110;2022-11-18T15:47:11;4.35;;;1.50;;
43449;SDS011;29041;42.266;23.110;2022-11-18T15:49:58;4.30;;;1.25;;
43449;SDS011;29041;42.266;23.110;2022-11-18T15:52:46;3.20;;;1.77;;
43449;SDS011;29041;42.266;23.110;2022-11-18T15:55:33;4.30;;;1.63;;
43449;SDS011;29041;42.266;23.110;2022-11-18T15:58:20;3.42;;;1.15;;
43449;SDS011;29041;42.266;23.110;2022-11-18T16:01:07;2.03;;;1.23;;
43449;SDS011;29041;42.266;23.110;2022-11-18T16:03:55;2.95;;;1.60;;
43449;SDS011;29041;42.266;23.110;2022-11-18T16:06:43;3.33;;;1.75;;
43449;SDS011;29041;42.266;23.110;2022-11-18T16:09:30;5.85;;;2.83;;
43449;SDS011;29041;42.266;23.110;2022-11-18T16:12:31;9.07;;;3.72;;
43449;SDS011;29041;42.266;23.110;2022-11-18T16:15:34;3.60;;;1.70;;
43449;SDS011;29041;42.266;23.110;2022-11-18T16:18:32;7.10;;;2.40;;
43449;SDS011;29041;42.266;23.110;2022-11-18T16:21:21;6.00;;;1.90;;
43449;SDS011;29041;42.266;23.110;2022-11-18T16:24:10;2.42;;;1.63;;
43449;SDS011;29041;42.266;23.110;2022-11-18T16:27:00;3.55;;;1.77;;
43449;SDS011;29041;42.266;23.110;2022-11-18T16:29:47;3.63;;;1.33;;
43449;SDS011;29041;42.266;23.110;2022-11-18T16:32:34;2.22;;;1.67;;
43449;SDS011;29041;42.266;23.110;2022-11-18T16:35:21;3.45;;;1.70;;
43449;SDS011;29041;42.266;23.110;2022-11-18T16:38:10;3.40;;;1.75;;
43449;SDS011;29041;42.266;23.110;2022-11-18T16:40:57;3.03;;;1.95;;
43449;SDS011;29041;42.266;23.110;2022-11-18T16:43:47;5.78;;;1.63;;
43449;SDS011;29041;42.266;23.110;2022-11-18T16:46:35;4.05;;;1.95;;
43449;SDS011;29041;42.266;23.110;2022-11-18T16:49:25;3.08;;;1.33;;
43449;SDS011;29041;42.266;23.110;2022-11-18T16:52:13;3.33;;;2.03;;
43449;SDS011;29041;42.266;23.110;2022-11-18T16:55:01;4.07;;;2.92;;
43449;SDS011;29041;42.266;23.110;2022-11-18T16:57:49;3.78;;;1.60;;
43449;SDS011;29041;42.266;23.110;2022-11-18T17:00:36;6.68;;;2.05;;
43449;SDS011;29041;42.266;23.110;2022-11-18T17:03:23;2.70;;;2.05;;
43449;SDS011;29041;42.266;23.110;2022-11-18T17:06:10;7.53;;;2.75;;
43449;SDS011;29041;42.266;23.110;2022-11-18T17:08:58;5.68;;;3.03;;
43449;SDS011;29041;42.266;23.110;2022-11-18T17:11:47;7.65;;;2.72;;
43449;SDS011;29041;42.266;23.110;2022-11-18T17:14:35;5.15;;;3.42;;
43449;SDS011;29041;42.266;23.110;2022-11-18T17:17:24;4.38;;;1.85;;